Time;durP1;ratioP1;P1;durP2;ratioP2;P2;SDS_P1;SDS_P2;PMS_P1;PMS_P2;Temp;Humidity;BMP_temperature;BMP_pressure;BME280_temperature;BME280_humidity;BME280_pressure;Samples;Min_cycle;Max_cycle;Signal;HPM_P1;HPM_P2
2022/07/11 00:02:14;;;;;;;1.63;0.87;;;21.60;99.90;;;;;;5014465;28;20597;-76
2022/07/11 00:04:45;;;;;;;2.50;0.90;;;21.60;99.90;;;;;;5014066;28;20565;-76
2022/07/11 00:07:11;;;;;;;1.70;0.80;;;21.60;99.90;;;;;;5014248;28;20569;-76
2022/07/11 00:09:37;;;;;;;2.27;0.80;;;21.60;99.90;;;;;;5014465;28;20609;-76
2022/07/11 00:12:03;;;;;;;4.50;1.10;;;21.60;99.90;;;;;;5014023;28;20220;-76
2022/07/11 00:14:29;;;;;;;1.57;0.90;;;21.50;99.90;;;;;;5013756;28;20166;-76
2022/07/11 00:16:55;;;;;;;4.47;0.97;;;21.50;99.90;;;;;;5014113;28;20574;-76
2022/07/11 00:19:21;;;;;;;2.20;1.10;;;21.50;99.90;;;;;;5013252;28;20166;-76
2022/07/11 00:21:48;;;;;;;2.77;1.00;;;21.50;99.90;;;;;;5013515;28;20627;-76
2022/07/11 00:24:14;;;;;;;2.40;0.97;;;21.50;99.90;;;;;;5013771;28;20909;-76
2022/07/11 00:26:40;;;;;;;2.33;0.80;;;21.50;99.90;;;;;;5013971;28;20565;-76
2022/07/11 00:29:06;;;;;;;2.70;1.20;;;21.50;99.90;;;;;;4996384;28;20230;-76
2022/07/11 00:31:32;;;;;;;1.83;0.97;;;21.40;99.90;;;;;;5014115;28;20297;-76
2022/07/11 00:33:58;;;;;;;2.10;1.00;;;21.40;99.90;;;;;;5014182;28;20570;-76
2022/07/11 00:36:24;;;;;;;2.10;1.10;;;21.40;99.90;;;;;;5014148;28;20561;-76
2022/07/11 00:38:50;;;;;;;3.30;1.10;;;21.40;99.90;;;;;;4996215;28;20615;-76
2022/07/11 00:41:16;;;;;;;3.53;1.00;;;21.30;99.90;;;;;;5012882;28;20605;-76
2022/07/11 00:43:43;;;;;;;1.67;0.90;;;21.30;99.90;;;;;;5012901;28;20577;-77
2022/07/11 00:46:10;;;;;;;1.67;1.00;;;21.30;99.90;;;;;;5013383;28;20569;-76
2022/07/11 00:48:36;;;;;;;2.43;1.27;;;21.30;99.90;;;;;;5013687;28;20609;-76
2022/07/11 00:51:03;;;;;;;3.73;1.17;;;21.30;99.90;;;;;;5012890;28;20619;-76
2022/07/11 00:53:30;;;;;;;2.17;1.03;;;21.30;99.90;;;;;;5012895;28;20646;-76
2022/07/11 00:55:56;;;;;;;4.33;1.30;;;21.20;99.90;;;;;;5013401;28;20566;-76
2022/07/11 00:58:23;;;;;;;2.17;0.97;;;21.20;99.90;;;;;;5013438;28;20933;-76
2022/07/11 01:00:49;;;;;;;2.47;1.00;;;21.20;99.90;;;;;;5013037;28;20658;-76
2022/07/11 01:03:15;;;;;;;2.57;1.07;;;21.20;99.90;;;;;;5012743;28;20600;-76
2022/07/11 01:05:41;;;;;;;3.30;2.17;;;21.10;99.90;;;;;;4995857;28;20684;-76
2022/07/11 01:08:07;;;;;;;2.27;0.90;;;21.10;99.90;;;;;;4996417;28;20605;-76
2022/07/11 01:10:33;;;;;;;1.70;1.00;;;21.10;99.90;;;;;;5013692;28;20597;-76
2022/07/11 01:12:59;;;;;;;5.10;1.00;;;21.10;99.90;;;;;;5012777;28;20616;-76
2022/07/11 01:15:25;;;;;;;1.90;1.00;;;21.00;99.90;;;;;;5012928;28;21371;-76
2022/07/11 01:17:52;;;;;;;2.63;1.00;;;21.00;99.90;;;;;;5013290;28;20321;-76
2022/07/11 01:20:19;;;;;;;2.53;1.10;;;21.00;99.90;;;;;;5012217;28;20593;-76
2022/07/11 01:22:51;;;;;;;3.10;1.37;;;21.00;99.90;;;;;;5012832;28;20605;-76
2022/07/11 01:25:31;;;;;;;3.57;1.10;;;20.90;99.90;;;;;;5011789;28;20580;-76
2022/07/11 01:27:58;;;;;;;2.20;1.10;;;20.90;99.90;;;;;;5012719;28;20604;-76
2022/07/11 01:30:26;;;;;;;3.37;1.60;;;20.90;99.90;;;;;;4994849;28;21314;-76
2022/07/11 01:32:53;;;;;;;3.60;1.10;;;20.90;99.90;;;;;;5012500;28;20577;-76
2022/07/11 01:35:22;;;;;;;3.00;1.00;;;20.80;99.90;;;;;;5012168;28;20557;-76
2022/07/11 01:37:48;;;;;;;3.07;1.37;;;20.80;99.90;;;;;;5012298;28;20647;-76
2022/07/11 01:40:14;;;;;;;3.10;1.30;;;20.80;99.90;;;;;;5011552;28;20565;-77
2022/07/11 01:42:41;;;;;;;2.30;1.20;;;20.80;99.90;;;;;;5011827;28;20573;-77
2022/07/11 01:45:07;;;;;;;2.63;1.10;;;20.70;99.90;;;;;;4981529;28;20921;-77
2022/07/11 01:47:33;;;;;;;2.77;1.10;;;20.70;99.90;;;;;;5002746;28;20577;-77
2022/07/11 01:49:59;;;;;;;1.80;1.20;;;20.60;99.90;;;;;;5028335;28;20969;-76
2022/07/11 01:52:25;;;;;;;2.77;1.10;;;20.60;99.90;;;;;;5019927;28;20185;-76
2022/07/11 01:54:51;;;;;;;3.10;1.20;;;20.60;99.90;;;;;;5018870;28;20169;-76
2022/07/11 01:57:17;;;;;;;2.33;0.90;;;20.50;99.90;;;;;;5019351;28;20579;-76
2022/07/11 01:59:43;;;;;;;1.93;1.07;;;20.50;99.90;;;;;;5001401;28;20182;-76
2022/07/11 02:02:09;;;;;;;2.07;1.10;;;20.50;99.90;;;;;;5018890;28;20556;-77
2022/07/11 02:04:35;;;;;;;3.00;1.07;;;20.50;99.90;;;;;;4984949;28;20581;-76
2022/07/11 02:07:00;;;;;;;3.33;1.20;;;20.40;99.90;;;;;;5019200;28;20580;-77
2022/07/11 02:09:26;;;;;;;3.67;1.10;;;20.40;99.90;;;;;;5019346;28;20198;-77
2022/07/11 02:11:52;;;;;;;4.30;1.27;;;20.40;99.90;;;;;;5019027;28;20213;-77
2022/07/11 02:14:18;;;;;;;4.93;1.23;;;20.40;99.90;;;;;;5000849;28;20569;-77
2022/07/11 02:16:44;;;;;;;3.57;1.57;;;20.30;99.90;;;;;;5019265;28;20580;-77
2022/07/11 02:19:10;;;;;;;3.57;1.10;;;20.30;99.90;;;;;;5018945;28;20184;-77
2022/07/11 02:21:37;;;;;;;2.00;1.50;;;20.30;99.90;;;;;;4997574;28;20210;-76
2022/07/11 02:24:03;;;;;;;2.60;1.40;;;20.20;99.90;;;;;;5018801;28;20659;-77
2022/07/11 02:26:29;;;;;;;2.80;1.10;;;20.10;99.90;;;;;;5001405;28;20998;-77
2022/07/11 02:28:55;;;;;;;2.70;1.13;;;20.10;99.90;;;;;;5007407;28;20665;-76
2022/07/11 02:31:21;;;;;;;2.93;1.17;;;20.00;99.90;;;;;;5015367;28;20605;-77
2022/07/11 02:33:47;;;;;;;1.67;1.10;;;19.90;99.90;;;;;;5013269;28;20784;-77
2022/07/11 02:36:13;;;;;;;2.63;1.40;;;19.90;99.90;;;;;;5002701;28;20684;-77
2022/07/11 02:38:39;;;;;;;4.43;1.73;;;19.80;99.90;;;;;;5018213;28;20569;-77
2022/07/11 02:41:05;;;;;;;2.07;1.13;;;19.80;99.90;;;;;;5018454;28;21033;-77
2022/07/11 02:43:31;;;;;;;4.70;1.60;;;19.70;99.90;;;;;;5012499;28;20684;-77
2022/07/11 02:45:57;;;;;;;3.47;1.70;;;19.70;99.90;;;;;;5018436;28;20588;-77
2022/07/11 02:48:22;;;;;;;4.53;1.67;;;19.70;99.90;;;;;;5009938;28;20198;-77
2022/07/11 02:50:48;;;;;;;2.37;1.07;;;19.70;99.90;;;;;;4971134;28;20641;-77
2022/07/11 02:53:14;;;;;;;2.87;1.70;;;19.60;99.90;;;;;;5012390;28;20256;-77
2022/07/11 02:55:40;;;;;;;3.20;1.27;;;19.60;99.90;;;;;;4977447;28;20185;-76
2022/07/11 02:58:06;;;;;;;4.50;1.60;;;19.60;99.90;;;;;;5014643;28;20581;-76
2022/07/11 03:00:32;;;;;;;3.50;1.53;;;19.50;99.90;;;;;;5011785;28;21295;-77
2022/07/11 03:02:58;;;;;;;4.17;1.37;;;19.50;99.90;;;;;;5008536;28;20206;-76
2022/07/11 03:05:25;;;;;;;3.43;1.63;;;19.50;99.90;;;;;;5014999;28;20594;-77
2022/07/11 03:07:51;;;;;;;8.63;2.50;;;19.40;99.90;;;;;;5015095;28;20586;-77
2022/07/11 03:10:17;;;;;;;2.23;1.53;;;19.40;99.90;;;;;;5014585;28;20637;-77
2022/07/11 03:12:45;;;;;;;3.53;1.93;;;19.30;99.90;;;;;;5015419;28;20224;-77
2022/07/11 03:15:11;;;;;;;2.60;1.93;;;19.30;99.90;;;;;;5014466;28;21103;-77
2022/07/11 03:17:37;;;;;;;2.63;1.60;;;19.20;99.90;;;;;;5015030;28;21123;-77
2022/07/11 03:20:08;;;;;;;2.60;1.50;;;19.20;99.90;;;;;;5014057;28;20649;-76
2022/07/11 03:22:34;;;;;;;3.00;2.00;;;19.10;99.90;;;;;;5014754;28;20591;-76
2022/07/11 03:25:00;;;;;;;4.47;1.80;;;19.10;99.90;;;;;;5014115;28;20597;-77
2022/07/11 03:27:26;;;;;;;3.07;1.97;;;19.00;99.90;;;;;;5014108;28;20573;-77
2022/07/11 03:29:52;;;;;;;3.27;2.10;;;19.00;99.90;;;;;;5014258;28;20617;-76
2022/07/11 03:32:20;;;;;;;4.97;2.10;;;18.90;99.90;;;;;;5014643;28;20604;-76
2022/07/11 03:37:31;;;;;;;2.90;1.90;;;18.90;99.90;;;;;;5016949;28;20664;-76
2022/07/11 03:39:57;;;;;;;5.07;2.50;;;18.90;99.90;;;;;;4996723;28;20677;-76
2022/07/11 03:42:23;;;;;;;2.17;1.50;;;18.80;99.90;;;;;;5014292;28;20982;-77
2022/07/11 03:44:48;;;;;;;2.80;2.07;;;18.80;99.90;;;;;;5014138;28;20616;-76
2022/07/11 03:47:14;;;;;;;5.20;2.20;;;18.80;99.90;;;;;;5014398;28;20206;-76
2022/07/11 03:49:40;;;;;;;6.80;2.63;;;18.70;99.90;;;;;;4998136;28;20293;-77
2022/07/11 03:52:06;;;;;;;3.20;1.97;;;18.70;99.90;;;;;;5015435;28;20201;-76
2022/07/11 03:54:31;;;;;;;6.73;2.40;;;18.70;99.90;;;;;;5013348;28;20918;-77
2022/07/11 03:56:57;;;;;;;4.33;2.00;;;18.70;99.90;;;;;;4995849;28;20578;-77
2022/07/11 03:59:23;;;;;;;4.83;2.30;;;18.70;99.90;;;;;;4996468;28;20650;-76
2022/07/11 04:01:49;;;;;;;2.70;2.20;;;18.70;99.90;;;;;;5013202;28;20273;-76
2022/07/11 04:04:14;;;;;;;4.13;2.53;;;18.70;99.90;;;;;;4995488;28;20658;-77
2022/07/11 04:06:42;;;;;;;4.73;1.87;;;18.70;99.90;;;;;;5013430;28;20166;-77
2022/07/11 04:09:08;;;;;;;3.07;2.20;;;18.80;99.90;;;;;;5013195;28;20194;-77
2022/07/11 04:11:33;;;;;;;2.87;2.00;;;18.90;99.90;;;;;;5013815;28;20689;-76
2022/07/11 04:13:59;;;;;;;4.10;2.87;;;18.90;99.90;;;;;;5015788;28;20236;-76
2022/07/11 04:16:25;;;;;;;3.33;2.10;;;18.90;99.90;;;;;;5013646;28;20212;-77
2022/07/11 04:18:51;;;;;;;4.90;2.90;;;19.00;99.90;;;;;;5013618;28;20890;-77
2022/07/11 04:21:17;;;;;;;2.20;1.70;;;19.00;99.90;;;;;;5012879;28;20741;-77
2022/07/11 04:23:42;;;;;;;2.87;2.07;;;19.10;99.90;;;;;;5013059;28;20170;-77
2022/07/11 04:26:08;;;;;;;3.17;2.37;;;19.10;99.90;;;;;;4995828;28;20206;-77
2022/07/11 04:28:34;;;;;;;4.73;2.30;;;19.10;99.90;;;;;;5013280;28;20976;-77
2022/07/11 04:31:00;;;;;;;5.90;2.00;;;19.20;99.90;;;;;;5008983;23;20256;-74
2022/07/11 04:33:27;;;;;;;3.60;2.10;;;19.20;99.90;;;;;;4994921;28;20182;-74
2022/07/11 04:35:53;;;;;;;2.73;1.73;;;19.30;99.90;;;;;;5012815;28;20571;-74
2022/07/11 04:38:21;;;;;;;4.70;1.50;;;19.30;99.90;;;;;;5012654;28;20999;-73
2022/07/11 04:40:48;;;;;;;5.57;2.43;;;19.40;99.90;;;;;;5012136;28;20178;-74
2022/07/11 04:43:14;;;;;;;3.27;2.30;;;19.40;99.90;;;;;;5012314;28;20569;-74
2022/07/11 04:45:40;;;;;;;3.47;1.80;;;19.50;99.90;;;;;;5012403;28;20601;-74
2022/07/11 04:48:06;;;;;;;5.30;2.40;;;19.50;99.90;;;;;;5012469;28;20558;-74
2022/07/11 04:50:32;;;;;;;2.53;1.63;;;19.60;99.90;;;;;;5012050;28;20593;-74
2022/07/11 04:52:57;;;;;;;6.80;2.73;;;19.60;99.90;;;;;;5011886;28;20232;-73
2022/07/11 04:55:23;;;;;;;7.47;2.33;;;19.70;99.90;;;;;;5012312;28;20166;-73
2022/07/11 04:57:50;;;;;;;3.00;1.70;;;19.70;99.90;;;;;;4994955;28;20178;-73
2022/07/11 05:00:16;;;;;;;2.93;1.80;;;19.80;99.90;;;;;;5011949;28;20971;-73
2022/07/11 05:02:41;;;;;;;2.37;2.17;;;19.90;99.90;;;;;;5012241;28;20570;-73
2022/07/11 05:05:08;;;;;;;4.90;2.60;;;19.90;99.90;;;;;;4994390;28;20579;-73
2022/07/11 05:07:34;;;;;;;4.47;1.80;;;20.00;99.90;;;;;;4994561;28;20521;-74
2022/07/11 05:10:00;;;;;;;3.23;2.30;;;20.00;99.90;;;;;;4993847;28;21298;-74
2022/07/11 05:12:26;;;;;;;4.00;2.00;;;20.10;99.90;;;;;;4994312;28;20569;-74
2022/07/11 05:14:52;;;;;;;3.33;1.87;;;20.20;99.90;;;;;;5011511;28;21116;-74
2022/07/11 05:17:18;;;;;;;3.10;1.80;;;20.20;99.90;;;;;;5012014;28;20174;-74
2022/07/11 05:19:44;;;;;;;2.70;1.83;;;20.30;99.90;;;;;;5010922;28;20170;-73
2022/07/11 05:22:10;;;;;;;4.90;2.00;;;20.30;99.90;;;;;;4994228;28;20573;-74
2022/07/11 05:24:36;;;;;;;2.80;1.70;;;20.40;99.90;;;;;;5011264;28;21101;-73
2022/07/11 05:27:02;;;;;;;4.40;1.77;;;20.40;99.90;;;;;;5012123;28;20580;-73
2022/07/11 05:29:28;;;;;;;4.10;2.07;;;20.40;99.90;;;;;;5011724;28;20198;-72
2022/07/11 05:31:54;;;;;;;6.97;1.80;;;20.40;99.90;;;;;;5011446;28;21164;-72
2022/07/11 05:34:20;;;;;;;3.27;1.80;;;20.40;99.90;;;;;;5011360;28;20173;-72
2022/07/11 05:36:46;;;;;;;3.43;2.20;;;20.40;99.90;;;;;;4994245;28;20175;-73
2022/07/11 05:39:12;;;;;;;5.27;1.57;;;20.40;99.90;;;;;;4994117;28;21143;-72
2022/07/11 05:41:37;;;;;;;2.53;1.80;;;20.40;99.90;;;;;;5011337;28;20601;-73
2022/07/11 05:44:03;;;;;;;2.70;2.10;;;20.40;99.90;;;;;;4993758;28;20179;-72
2022/07/11 05:46:29;;;;;;;3.23;1.50;;;20.40;99.90;;;;;;5011528;28;20170;-72
2022/07/11 05:48:55;;;;;;;3.40;2.07;;;20.40;99.90;;;;;;5011624;28;20770;-73
2022/07/11 05:51:20;;;;;;;3.13;1.90;;;20.40;99.90;;;;;;4993648;28;20186;-72
2022/07/11 05:53:46;;;;;;;2.90;2.03;;;20.40;99.90;;;;;;4993166;28;20233;-72
2022/07/11 05:56:12;;;;;;;6.37;3.10;;;20.40;99.90;;;;;;4994212;28;20508;-72
2022/07/11 05:58:38;;;;;;;5.00;2.70;;;20.40;99.90;;;;;;5011520;28;20256;-72
2022/07/11 06:01:03;;;;;;;3.97;2.10;;;20.40;99.90;;;;;;4993663;28;20201;-72
2022/07/11 06:03:29;;;;;;;3.87;2.30;;;20.40;99.90;;;;;;5011097;28;20659;-72
2022/07/11 06:05:55;;;;;;;2.73;1.93;;;20.50;99.90;;;;;;4993937;28;20573;-72
2022/07/11 06:11:05;;;;;;;5.17;1.90;;;20.50;99.90;;;;;;5011417;28;20276;-72
2022/07/11 06:13:31;;;;;;;4.33;1.50;;;20.50;99.90;;;;;;5012273;28;20597;-72
2022/07/11 06:15:57;;;;;;;3.13;1.87;;;20.50;99.90;;;;;;5011730;28;20162;-72
2022/07/11 06:18:23;;;;;;;5.30;2.30;;;20.50;99.90;;;;;;5011311;28;20928;-72
2022/07/11 06:20:49;;;;;;;2.70;1.80;;;20.50;99.90;;;;;;5010635;28;20658;-72
2022/07/11 06:23:15;;;;;;;4.00;1.87;;;20.60;99.90;;;;;;4993204;28;20565;-72
2022/07/11 06:25:41;;;;;;;3.17;2.13;;;20.60;99.90;;;;;;5011474;28;20569;-72
2022/07/11 06:28:07;;;;;;;6.40;1.97;;;20.60;99.90;;;;;;5011300;28;21188;-72
2022/07/11 06:30:33;;;;;;;4.00;1.97;;;20.70;99.90;;;;;;5011059;28;20289;-72
2022/07/11 06:32:59;;;;;;;4.80;2.07;;;20.70;99.90;;;;;;4997049;28;21199;-72
2022/07/11 06:35:24;;;;;;;3.37;2.20;;;20.70;99.90;;;;;;5014808;28;20660;-72
2022/07/11 06:37:50;;;;;;;3.90;2.90;;;20.70;99.90;;;;;;5014834;28;20587;-72
2022/07/11 06:40:17;;;;;;;5.43;2.60;;;20.80;99.90;;;;;;5014621;28;20610;-72
2022/07/11 06:42:44;;;;;;;3.83;2.20;;;20.80;99.90;;;;;;4997340;28;20538;-72
2022/07/11 06:45:10;;;;;;;3.70;3.00;;;20.90;99.90;;;;;;5014248;28;20553;-72
2022/07/11 06:47:36;;;;;;;3.00;2.77;;;21.00;99.90;;;;;;4981011;28;20581;-72
2022/07/11 06:50:02;;;;;;;3.37;2.70;;;21.10;99.90;;;;;;5014044;28;20621;-72
2022/07/11 06:52:28;;;;;;;4.20;3.10;;;21.20;99.90;;;;;;5014670;28;20585;-72
2022/07/11 06:54:54;;;;;;;3.43;3.07;;;21.30;99.90;;;;;;5014065;28;20561;-72
2022/07/11 06:57:19;;;;;;;5.27;3.80;;;21.50;99.90;;;;;;4997057;28;20562;-73
2022/07/11 06:59:45;;;;;;;6.13;4.23;;;21.70;99.90;;;;;;5014071;28;20193;-72
2022/07/11 07:02:11;;;;;;;5.20;4.70;;;22.00;99.90;;;;;;5014448;28;20174;-72
2022/07/11 07:04:37;;;;;;;4.03;3.67;;;22.20;99.90;;;;;;4996157;28;20169;-72
2022/07/11 07:07:03;;;;;;;6.67;4.03;;;22.50;99.90;;;;;;5014507;28;20171;-72
2022/07/11 07:09:29;;;;;;;5.80;4.57;;;22.70;99.90;;;;;;4996591;28;20209;-72
2022/07/11 07:11:55;;;;;;;5.50;3.93;;;22.90;99.90;;;;;;5013983;28;20953;-72
2022/07/11 07:14:21;;;;;;;6.23;3.20;;;23.10;99.90;;;;;;4996281;28;20565;-72
2022/07/11 07:16:47;;;;;;;4.30;3.97;;;23.20;99.90;;;;;;5014108;28;20565;-72
2022/07/11 07:19:13;;;;;;;3.27;2.93;;;23.40;99.90;;;;;;4996482;28;20947;-72
2022/07/11 07:21:39;;;;;;;4.20;3.57;;;23.40;99.90;;;;;;5013725;28;21010;-72
2022/07/11 07:24:05;;;;;;;4.17;3.77;;;23.50;99.90;;;;;;5013384;28;20608;-72
2022/07/11 07:26:33;;;;;;;3.50;2.90;;;23.50;99.90;;;;;;4996459;28;21222;-72
2022/07/11 07:28:59;;;;;;;3.10;2.77;;;23.50;99.90;;;;;;5013992;28;20620;-72
2022/07/11 07:31:24;;;;;;;3.13;2.43;;;23.50;99.90;;;;;;4995925;28;20609;-72
2022/07/11 07:33:51;;;;;;;5.67;3.10;;;23.50;99.90;;;;;;4995752;28;20569;-72
2022/07/11 07:36:16;;;;;;;3.63;2.40;;;23.40;99.90;;;;;;5013754;28;20604;-72
2022/07/11 07:38:43;;;;;;;2.70;2.33;;;23.40;99.90;;;;;;5013772;28;20574;-73
2022/07/11 07:41:10;;;;;;;2.40;2.20;;;23.40;99.90;;;;;;5013448;28;20252;-72
2022/07/11 07:43:36;;;;;;;2.57;2.27;;;23.30;99.90;;;;;;5012504;28;20565;-72
2022/07/11 07:46:02;;;;;;;3.77;1.93;;;23.30;99.90;;;;;;5013668;28;20619;-73
2022/07/11 07:48:27;;;;;;;2.60;2.40;;;23.30;99.90;;;;;;5013324;28;20174;-72
2022/07/11 07:50:53;;;;;;;4.20;2.80;;;23.20;99.90;;;;;;5013077;28;20194;-72
2022/07/11 07:53:19;;;;;;;4.10;3.43;;;23.20;99.90;;;;;;4995506;28;20536;-73
2022/07/11 07:55:45;;;;;;;4.10;3.33;;;23.10;99.90;;;;;;4995953;28;20185;-72
2022/07/11 07:58:10;;;;;;;7.57;4.10;;;23.10;99.90;;;;;;5013506;28;20170;-72
2022/07/11 08:03:20;;;;;;;4.30;3.90;;;22.90;99.90;;;;;;5012623;28;20253;-72
2022/07/11 08:05:46;;;;;;;4.73;3.97;;;22.90;99.90;;;;;;5013278;28;20576;-73
2022/07/11 08:08:12;;;;;;;4.87;4.30;;;22.80;99.90;;;;;;5013338;28;21008;-72
2022/07/11 08:10:39;;;;;;;4.00;3.40;;;22.70;99.90;;;;;;5012824;28;20710;-72
2022/07/11 08:13:04;;;;;;;4.50;3.57;;;22.70;99.90;;;;;;5012673;28;20212;-72
2022/07/11 08:15:30;;;;;;;5.27;4.77;;;22.70;99.90;;;;;;4995634;28;20561;-72
2022/07/11 08:17:56;;;;;;;4.27;3.97;;;22.70;99.90;;;;;;5012816;28;20173;-72
2022/07/11 08:20:22;;;;;;;5.30;4.80;;;22.70;99.90;;;;;;5012710;28;20194;-72
2022/07/11 08:22:48;;;;;;;5.33;4.83;;;22.80;99.90;;;;;;4995480;28;20185;-72
2022/07/11 08:25:13;;;;;;;5.60;4.80;;;22.80;99.90;;;;;;5012486;28;20565;-73
2022/07/11 08:27:39;;;;;;;6.87;6.20;;;22.90;99.90;;;;;;5013013;28;20174;-72
2022/07/11 08:30:07;;;;;;;6.60;5.90;;;22.90;99.90;;;;;;4994768;28;20244;-72
2022/07/11 08:32:33;;;;;;;7.30;6.67;;;22.90;99.90;;;;;;5012400;28;20612;-72
2022/07/11 08:34:59;;;;;;;8.20;6.40;;;22.90;99.90;;;;;;5012229;28;20573;-72
2022/07/11 08:37:25;;;;;;;6.70;6.10;;;23.00;99.90;;;;;;5012784;28;20562;-72
2022/07/11 08:39:51;;;;;;;8.27;7.37;;;23.10;99.90;;;;;;5012155;28;20652;-73
2022/07/11 08:42:20;;;;;;;6.53;6.03;;;23.10;99.90;;;;;;5012449;28;20700;-72
2022/07/11 08:44:46;;;;;;;7.83;7.13;;;23.20;99.90;;;;;;5012149;28;20262;-73
2022/07/11 08:47:12;;;;;;;6.53;5.93;;;23.20;99.90;;;;;;5012285;28;20619;-72
2022/07/11 08:49:40;;;;;;;6.10;5.67;;;23.40;99.90;;;;;;5012173;28;20659;-72
2022/07/11 08:52:07;;;;;;;8.37;7.60;;;23.50;99.90;;;;;;5012320;28;20593;-72
2022/07/11 08:54:33;;;;;;;8.40;7.50;;;23.50;99.90;;;;;;5010798;28;20596;-72
2022/07/11 08:57:01;;;;;;;7.30;6.70;;;23.60;99.90;;;;;;4994875;28;21140;-72
2022/07/11 08:59:29;;;;;;;9.03;8.33;;;23.60;99.90;;;;;;5012263;28;20580;-73
2022/07/11 09:02:00;;;;;;;7.50;6.90;;;23.60;99.90;;;;;;5011612;28;20597;-72
2022/07/11 09:04:28;;;;;;;8.00;7.30;;;23.70;99.90;;;;;;5011608;28;20936;-73
2022/07/11 09:06:53;;;;;;;6.27;5.77;;;23.70;99.90;;;;;;5012301;28;20668;-72
2022/07/11 09:09:19;;;;;;;5.13;4.63;;;23.70;99.90;;;;;;5012147;28;21248;-72
2022/07/11 09:11:56;;;;;;;6.67;6.10;;;23.80;99.90;;;;;;5011845;28;20195;-72
2022/07/11 09:14:31;;;;;;;9.60;5.80;;;23.80;99.90;;;;;;4994139;28;20550;-72
2022/07/11 09:17:00;;;;;;;5.30;4.90;;;23.90;99.90;;;;;;4994439;28;20726;-72
2022/07/11 09:19:28;;;;;;;7.10;5.70;;;23.90;99.90;;;;;;5012107;28;21120;-72
2022/07/11 09:27:56;;;;;;;5.13;4.00;;;23.90;99.90;;;;;;4993329;28;21144;-73
2022/07/11 09:30:25;;;;;;;4.10;3.10;;;24.00;99.90;;;;;;4993760;28;20629;-72
2022/07/11 09:33:02;;;;;;;2.70;2.50;;;24.00;99.90;;;;;;5011969;28;20562;-72
2022/07/11 09:35:45;;;;;;;4.80;3.07;;;24.00;99.90;;;;;;5012000;28;20565;-73
2022/07/11 09:38:16;;;;;;;3.83;3.50;;;24.10;99.90;;;;;;5011703;28;21112;-72
2022/07/11 09:40:44;;;;;;;4.00;3.60;;;24.10;99.90;;;;;;4993212;28;20649;-72
2022/07/11 09:43:09;;;;;;;4.07;3.70;;;24.20;99.90;;;;;;5010424;28;20980;-72
2022/07/11 09:45:36;;;;;;;3.43;3.13;;;24.30;99.90;;;;;;5011538;28;20577;-72
2022/07/11 09:48:07;;;;;;;4.43;4.03;;;24.40;99.90;;;;;;4994360;28;20197;-72
2022/07/11 09:50:34;;;;;;;6.37;5.87;;;24.50;99.90;;;;;;5011157;28;20633;-73
2022/07/11 09:53:11;;;;;;;5.30;4.90;;;24.60;99.90;;;;;;5011427;28;20566;-72
2022/07/11 09:55:44;;;;;;;7.80;7.20;;;24.60;99.90;;;;;;5011569;28;21136;-73
2022/07/11 09:58:11;;;;;;;8.30;7.60;;;24.80;99.90;;;;;;5011518;28;20569;-73
2022/07/11 10:00:39;;;;;;;7.13;6.53;;;24.90;99.90;;;;;;5011174;28;20979;-72
2022/07/11 10:03:06;;;;;;;8.03;6.13;;;24.90;99.90;;;;;;5011226;28;20981;-73
2022/07/11 10:05:32;;;;;;;8.33;7.53;;;25.00;99.90;;;;;;5011748;28;20569;-72
2022/07/11 10:07:59;;;;;;;8.80;7.97;;;25.10;99.90;;;;;;5015462;28;20565;-73
2022/07/11 10:10:26;;;;;;;8.67;7.97;;;25.10;99.90;;;;;;5015127;28;20629;-73
2022/07/11 10:12:53;;;;;;;7.60;7.00;;;25.20;99.90;;;;;;5015358;28;20565;-73
2022/07/11 10:15:32;;;;;;;7.73;7.23;;;25.20;99.90;;;;;;5014766;28;20716;-72
2022/07/11 10:18:13;;;;;;;6.13;5.63;;;25.20;99.90;;;;;;5015478;28;20667;-73
2022/07/11 10:20:56;;;;;;;4.70;4.37;;;25.10;99.90;;;;;;4997407;28;20613;-72
2022/07/11 10:23:30;;;;;;;4.90;4.50;;;25.20;99.90;;;;;;5014578;28;20597;-72
2022/07/11 10:26:14;;;;;;;6.37;5.77;;;25.30;99.90;;;;;;5014884;28;20565;-72
2022/07/11 10:28:56;;;;;;;6.30;5.80;;;25.40;99.90;;;;;;5015076;28;20640;-72
2022/07/11 10:31:27;;;;;;;6.70;6.07;;;25.60;99.90;;;;;;4997317;28;20630;-72
2022/07/11 10:34:06;;;;;;;6.43;5.90;;;25.60;99.90;;;;;;5014587;28;20571;-72
2022/07/11 10:36:41;;;;;;;7.90;7.30;;;25.70;99.90;;;;;;5014971;28;20587;-73
2022/07/11 10:39:21;;;;;;;5.60;5.10;;;25.80;99.90;;;;;;5014922;28;21007;-73
2022/07/11 10:41:47;;;;;;;7.73;7.13;;;25.80;99.90;;;;;;5014358;28;21183;-72
2022/07/11 10:44:13;;;;;;;7.40;6.90;;;25.80;99.90;;;;;;5014179;28;20574;-72
2022/07/11 10:46:39;;;;;;;7.20;6.70;;;25.70;99.90;;;;;;5014764;28;20205;-72
2022/07/11 10:49:15;;;;;;;7.60;7.00;;;25.60;99.90;;;;;;4996972;28;20731;-73
2022/07/11 10:51:47;;;;;;;7.00;6.50;;;25.50;99.90;;;;;;5014137;28;20600;-72
2022/07/11 10:54:28;;;;;;;6.50;6.10;;;25.40;99.90;;;;;;5013876;28;20572;-72
2022/07/11 10:57:14;;;;;;;8.53;6.20;;;25.30;99.90;;;;;;5014564;28;20909;-72
2022/07/11 11:00:04;;;;;;;7.07;6.53;;;25.20;99.90;;;;;;5014328;28;20932;-73
2022/07/11 11:02:31;;;;;;;6.70;6.20;;;25.00;99.90;;;;;;5014366;28;20574;-72
2022/07/11 11:04:59;;;;;;;6.00;5.60;;;24.90;99.90;;;;;;5014042;28;20639;-72
2022/07/11 11:07:41;;;;;;;6.70;6.20;;;24.80;99.90;;;;;;5014231;28;20605;-72
2022/07/11 11:10:18;;;;;;;8.70;8.00;;;24.70;99.90;;;;;;5013775;28;20625;-73
2022/07/11 11:13:07;;;;;;;9.73;8.83;;;24.60;99.90;;;;;;5014166;28;20617;-72
2022/07/11 11:15:38;;;;;;;9.40;8.77;;;24.40;99.90;;;;;;5014180;28;20937;-72
2022/07/11 11:18:24;;;;;;;9.00;8.40;;;24.40;99.90;;;;;;5013119;28;20567;-72
2022/07/11 11:21:02;;;;;;;9.53;8.83;;;24.30;99.90;;;;;;4996822;28;20620;-72
2022/07/11 11:24:02;;;;;;;9.90;9.07;;;24.30;99.90;;;;;;5013318;28;20564;-72
2022/07/11 11:26:48;;;;;;;8.63;7.93;;;24.40;99.90;;;;;;4985692;28;20597;-72
2022/07/11 11:29:25;;;;;;;8.90;8.20;;;24.40;99.90;;;;;;5013794;28;20701;-72
2022/07/11 11:31:54;;;;;;;9.10;8.40;;;24.50;99.90;;;;;;5013456;28;21252;-72
2022/07/11 11:34:20;;;;;;;7.03;6.53;;;24.50;99.90;;;;;;5013384;28;20565;-72
2022/07/11 11:36:57;;;;;;;6.97;6.40;;;24.50;99.90;;;;;;5013966;28;20558;-72
2022/07/11 11:39:33;;;;;;;5.90;5.50;;;24.50;99.90;;;;;;5013581;28;20609;-72
2022/07/11 11:42:05;;;;;;;6.33;5.80;;;24.50;99.90;;;;;;4995946;28;20608;-72
2022/07/11 11:44:32;;;;;;;6.03;5.50;;;24.50;99.90;;;;;;4995597;28;20573;-72
2022/07/11 11:46:58;;;;;;;6.67;5.97;;;24.50;99.90;;;;;;5013705;28;20589;-72
2022/07/11 11:49:24;;;;;;;7.73;6.87;;;24.50;99.90;;;;;;5013662;28;20637;-73
2022/07/11 11:51:53;;;;;;;6.10;5.60;;;24.60;99.90;;;;;;4995724;28;20617;-72
2022/07/11 11:54:23;;;;;;;7.53;7.03;;;24.60;99.90;;;;;;5012920;28;20254;-73
2022/07/11 11:56:49;;;;;;;7.77;7.07;;;24.60;99.90;;;;;;5013517;28;20566;-72
2022/07/11 11:59:15;;;;;;;7.90;7.30;;;24.60;99.90;;;;;;4995518;28;20616;-73
2022/07/11 12:01:43;;;;;;;9.50;8.40;;;24.70;99.90;;;;;;5013088;28;20282;-73
2022/07/11 12:04:11;;;;;;;7.47;6.90;;;24.70;99.90;;;;;;4995168;28;21140;-72
2022/07/11 12:06:42;;;;;;;6.90;6.40;;;24.80;99.90;;;;;;5013025;28;20565;-72
2022/07/11 12:09:15;;;;;;;6.37;5.87;;;24.90;99.90;;;;;;5013000;28;20719;-73
2022/07/11 12:11:47;;;;;;;8.00;7.30;;;25.00;99.90;;;;;;5012686;28;21179;-72
2022/07/11 12:14:14;;;;;;;6.30;5.80;;;25.10;99.90;;;;;;5012648;28;20562;-73
2022/07/11 12:16:43;;;;;;;6.07;5.33;;;25.20;99.90;;;;;;5013200;28;20675;-73
2022/07/11 12:19:19;;;;;;;5.40;4.97;;;25.30;99.90;;;;;;5012979;28;20589;-73
2022/07/11 12:21:47;;;;;;;4.60;4.20;;;25.30;99.90;;;;;;5012358;28;20612;-72
2022/07/11 12:24:28;;;;;;;6.40;5.80;;;25.40;99.90;;;;;;5012457;28;21156;-73
2022/07/11 12:26:55;;;;;;;5.87;5.40;;;25.50;99.90;;;;;;5012822;28;20593;-72
2022/07/11 12:29:23;;;;;;;5.33;4.93;;;25.60;99.90;;;;;;4995063;28;20612;-73
2022/07/11 12:32:00;;;;;;;4.97;4.57;;;25.60;99.90;;;;;;5012363;28;20629;-72
2022/07/11 12:34:32;;;;;;;4.70;4.40;;;25.60;99.90;;;;;;5012332;28;20576;-72
2022/07/11 12:37:03;;;;;;;6.10;5.60;;;25.70;99.90;;;;;;4994800;28;20580;-72
2022/07/11 12:39:31;;;;;;;6.40;5.90;;;25.70;99.90;;;;;;5012700;28;20624;-73
2022/07/11 12:41:58;;;;;;;6.13;5.60;;;25.80;99.90;;;;;;5012413;28;20631;-73
2022/07/11 12:47:17;;;;;;;4.90;4.50;;;25.80;99.90;;;;;;5012610;28;20897;-72
2022/07/11 12:49:46;;;;;;;5.33;4.93;;;25.90;99.90;;;;;;5012190;28;21043;-72
2022/07/11 12:52:12;;;;;;;4.33;3.93;;;25.90;99.90;;;;;;5012338;28;20599;-72
2022/07/11 12:54:39;;;;;;;4.40;4.10;;;25.90;99.90;;;;;;5011875;28;20569;-73
2022/07/11 12:57:06;;;;;;;4.57;4.20;;;25.90;99.90;;;;;;4995048;28;20979;-72
2022/07/11 12:59:33;;;;;;;5.13;4.73;;;25.90;99.90;;;;;;5012257;28;20570;-72
2022/07/11 13:02:07;;;;;;;4.80;4.40;;;26.00;99.90;;;;;;4978105;28;20942;-72
2022/07/11 13:04:48;;;;;;;5.60;5.20;;;26.00;99.90;;;;;;5011794;28;20612;-72
2022/07/11 13:10:25;;;;;;;4.77;4.37;;;26.00;99.90;;;;;;5011824;28;20661;-72
2022/07/11 13:12:54;;;;;;;4.87;4.47;;;26.00;99.90;;;;;;5012235;28;20623;-72